Buscar
  • Menú Principal
  • Est. Meteorològica
  • Mareògraf
  • Previsió
Les dades presentades són DEUMINUTALS

Data últim calibratge: ** PENDENT **

Estat: Darrera lectura: 25/10 11:10 Hora local
Velocitat del vent: 2,8 Km/h Ratxa màxima: 7,5 km/h
V.vent (nusos): 1,5 Nudos Dir. procedència: SE (138º)
Temp. De l'aire: 19 ºC Hum. rel.: 57,9 %
         
Rosa de vent (últimes 24 h i 7 dies previs a 25/10 11:10 Hora local )
Rosa 24 Horas Rosa 7 Días
Últimes 24 hores Últims 7 dies
Descripció de l'estació:
         
Posició de l'estació
Imagen estacion
TOTES LES DADES ESTAN EN HORA LOCAL
Data
Vel. vent. (Km/h)
Dir. vent (º)
Max. vent. (Km/h):
Temp. aire (º C)
Hum. relativa (%)
2021/10/25 11:102,81387,51957,9
2021/10/25 11:003,01516,81858,2
2021/10/25 10:503,71647,51759,3
2021/10/25 10:402,72816,01762,3
2021/10/25 10:302,33134,21664,3
2021/10/25 10:204,22927,01565,8
2021/10/25 10:106,427411,01567,5
2021/10/25 10:005,926110,11567,8
2021/10/25 09:506,52789,61469,2
2021/10/25 09:406,42699,01470,3
2021/10/25 09:305,92699,11370,3
2021/10/25 09:202,42534,41371,9
2021/10/25 09:105,52449,51373,2
2021/10/25 09:006,92619,51273,3
2021/10/25 08:506,22709,41273,4
2021/10/25 08:407,627210,81273,5
2021/10/25 08:305,027410,31275,1
2021/10/25 08:206,824912,11275,8
2021/10/25 08:109,026513,21275,6
2021/10/25 08:008,328411,41274,7
2021/10/25 07:506,12539,91273,4
2021/10/25 07:403,22015,91373,2
2021/10/25 07:306,929710,11372,5
2021/10/25 07:207,127011,01371,2
Página 1 de 27 (632 Datos)< Prev1234567252627Next >
TOTES LES DADES ESTAN EN HORA LOCAL
Data
Vel. vent. (Km/h)
Dir. vent (º)
Max. vent. (Km/h):
Temp. aire (º C)
Hum. relativa (%)
2021/10/25 11:002,91387,11858,0
2021/10/25 10:004,21647,61664,5
2021/10/25 09:005,62788,51371,4
2021/10/25 08:007,227011,21274,7
2021/10/25 07:005,62539,41371,8
2021/10/25 06:006,327514,31467,6
2021/10/25 05:004,926913,91566,6
2021/10/25 04:006,021013,41471,1
2021/10/25 03:006,32829,61374,4
2021/10/25 02:005,326613,81569,0
2021/10/25 01:005,920815,31570,5
2021/10/25 00:005,727413,91574,3
2021/10/24 23:006,228010,91576,9
2021/10/24 22:003,725310,11771,7
2021/10/24 21:004,42829,51770,2
2021/10/24 20:004,82647,91967,7
2021/10/24 19:004,92399,82061,8
2021/10/24 18:009,018915,72060,0
2021/10/24 17:008,816616,92156,9
2021/10/24 16:0010,218917,72156,2
2021/10/24 15:0010,117319,82156,8
2021/10/24 14:009,717618,32155,8
2021/10/24 13:008,813415,02051,8
2021/10/24 12:008,613113,82054,6
Página 1 de 5 (106 Datos)< Prev12345Next >
TOTES LES DADES ESTAN EN HORA LOCAL
Data
Vel. vent. (Km/h)
Dir. vent (º)
Max. vent. (Km/h):
Temp. aire (º C)
Hum. relativa (%)
2021/10/25 00:005,613811,21469,7
2021/10/24 00:006,520814,41766,2
2021/10/23 00:007,935314,61665,5
2021/10/22 00:007,029413,51864,1
2021/10/21 00:007,528113,01980,9
TOTES LES DADES ESTAN EN HORA LOCAL
Les dades presentades són DEUMINUTALS
48 Hores
24 Hores
12 Hores
6 Hores
3 Hores

The Velocitat del vent (km/h) chart showing Velocitat del vent (km/h) series.

The Direcció vent (º) chart showing Direcció vent (º) series.


The Temperatura (º) chart showing Temperatura (º) series.